Time;durP1;ratioP1;P1;durP2;ratioP2;P2;SDS_P1;SDS_P2;PMS_P1;PMS_P2;Temp;Humidity;BMP_temperature;BMP_pressure;BME280_temperature;BME280_humidity;BME280_pressure;Samples;Min_cycle;Max_cycle;Signal;HPM_P1;HPM_P2
2021/07/14 00:02:09;;;;;;;;;;;25.30;62.50;;;;;;5130587;27;20373;-59
2021/07/14 00:04:36;;;;;;;;;;;25.30;62.40;;;;;;5132154;27;19923;-59
2021/07/14 00:07:04;;;;;;;;;;;25.30;62.30;;;;;;5131515;27;19927;-58
2021/07/14 00:09:31;;;;;;;;;;;25.30;62.30;;;;;;5132886;27;19965;-59
2021/07/14 00:12:00;;;;;;;;;;;25.30;62.50;;;;;;5120918;27;20363;-59
2021/07/14 00:17:24;;;;;;;;;;;25.30;62.50;;;;;;5132788;27;19924;-59
2021/07/14 00:22:38;;;;;;;;;;;25.30;62.50;;;;;;5117236;27;19967;-59
2021/07/14 00:25:07;;;;;;;;;;;25.30;62.60;;;;;;5115962;27;19923;-58
2021/07/14 00:27:39;;;;;;;;;;;25.30;62.80;;;;;;5128566;27;20365;-58
2021/07/14 00:30:09;;;;;;;;;;;25.30;62.80;;;;;;5127161;27;19931;-58
2021/07/14 00:32:36;;;;;;;;;;;25.30;62.90;;;;;;5113287;27;19982;-58
2021/07/14 00:35:06;;;;;;;;;;;25.30;62.90;;;;;;5120425;27;19930;-58
2021/07/14 00:37:34;;;;;;;;;;;25.30;62.90;;;;;;5125094;27;19928;-58
2021/07/14 00:40:05;;;;;;;;;;;25.20;62.80;;;;;;5134115;27;19994;-58
2021/07/14 00:42:32;;;;;;;;;;;25.30;62.90;;;;;;5129916;27;19948;-58
2021/07/14 00:44:59;;;;;;;;;;;25.30;62.90;;;;;;5130258;27;19927;-59
2021/07/14 00:47:29;;;;;;;;;;;25.30;62.90;;;;;;5131031;27;19973;-58
2021/07/14 00:49:57;;;;;;;;;;;25.30;62.90;;;;;;5132039;27;19923;-59
2021/07/14 00:52:24;;;;;;;;;;;25.20;62.90;;;;;;5129977;27;19974;-59
2021/07/14 00:54:51;;;;;;;;;;;25.20;62.90;;;;;;5130935;28;19923;-59
2021/07/14 00:57:21;;;;;;;;;;;25.20;62.90;;;;;;5131312;28;19976;-59
2021/07/14 00:59:48;;;;;;;;;;;25.20;63.00;;;;;;5131212;28;19973;-59
2021/07/14 01:02:15;;;;;;;;;;;25.20;62.90;;;;;;5132597;28;20018;-59
2021/07/14 01:04:45;;;;;;;;;;;25.20;62.90;;;;;;5131118;28;19925;-59
2021/07/14 01:07:16;;;;;;;;;;;25.20;62.90;;;;;;5112683;28;19931;-59
2021/07/14 01:09:46;;;;;;;;;;;25.20;62.90;;;;;;5132019;28;19972;-59
2021/07/14 01:12:19;;;;;;;;;;;25.20;62.90;;;;;;5115201;28;19928;-58
2021/07/14 01:14:50;;;;;;;;;;;25.20;62.80;;;;;;5115312;28;23583;-59
2021/07/14 01:17:18;;;;;;;;;;;25.20;62.80;;;;;;5114479;28;19924;-58
2021/07/14 01:19:48;;;;;;;;;;;25.20;62.80;;;;;;5132046;27;19956;-58
2021/07/14 01:22:20;;;;;;;;;;;25.20;62.80;;;;;;5100897;27;19954;-58
2021/07/14 01:25:05;;;;;;;;;;;25.20;62.80;;;;;;5137445;27;19923;-58
2021/07/14 01:27:35;;;;;;;;;;;25.20;62.90;;;;;;5118001;27;19931;-58
2021/07/14 01:30:05;;;;;;;;;;;25.20;62.80;;;;;;5136778;27;19966;-59
2021/07/14 01:32:33;;;;;;;;;;;25.20;62.80;;;;;;5118559;27;20336;-58
2021/07/14 01:35:06;;;;;;;;;;;25.20;62.80;;;;;;5137133;27;19924;-58
2021/07/14 01:37:33;;;;;;;;;;;25.10;62.70;;;;;;5135540;27;19971;-58
2021/07/14 01:40:02;;;;;;;;;;;25.10;62.80;;;;;;5136493;27;19923;-58
2021/07/14 01:42:30;;;;;;;;;;;25.10;62.80;;;;;;5137397;27;19924;-58
2021/07/14 01:44:57;;;;;;;;;;;25.10;62.80;;;;;;5135312;27;19931;-59
2021/07/14 01:47:26;;;;;;;;;;;25.10;62.90;;;;;;5133971;27;19973;-58
2021/07/14 01:49:54;;;;;;;;;;;25.10;62.90;;;;;;5134490;27;19928;-58
2021/07/14 01:52:24;;;;;;;;;;;25.10;62.90;;;;;;5136224;27;19977;-58
2021/07/14 01:54:52;;;;;;;;;;;25.10;62.90;;;;;;5133191;27;20341;-58
2021/07/14 01:57:22;;;;;;;;;;;25.10;62.90;;;;;;5135240;27;19952;-58
2021/07/14 01:59:50;;;;;;;;;;;25.10;63.00;;;;;;5122833;27;19969;-58
2021/07/14 02:02:20;;;;;;;;;;;25.10;63.00;;;;;;5117199;27;20437;-58
2021/07/14 02:04:47;;;;;;;;;;;25.10;63.10;;;;;;5119723;27;19924;-59
2021/07/14 02:07:24;;;;;;;;;;;25.10;63.00;;;;;;5117215;27;19967;-58
2021/07/14 02:09:52;;;;;;;;;;;25.00;62.90;;;;;;5118474;27;20379;-58
2021/07/14 02:12:23;;;;;;;;;;;25.10;63.00;;;;;;5125909;27;19985;-58
2021/07/14 02:14:59;;;;;;;;;;;25.00;63.00;;;;;;5132732;27;20379;-58
2021/07/14 02:17:28;;;;;;;;;;;25.10;63.00;;;;;;5123503;27;19967;-58
2021/07/14 02:20:05;;;;;;;;;;;25.10;63.00;;;;;;5128297;27;19970;-58
2021/07/14 02:22:32;;;;;;;;;;;25.10;63.00;;;;;;5126589;27;19994;-58
2021/07/14 02:24:59;;;;;;;;;;;25.10;62.90;;;;;;5134975;27;19974;-59
2021/07/14 02:27:26;;;;;;;;;;;25.00;62.70;;;;;;5132484;27;19923;-58
2021/07/14 02:29:53;;;;;;;;;;;25.00;62.70;;;;;;5135204;27;20336;-58
2021/07/14 02:32:21;;;;;;;;;;;25.00;62.70;;;;;;5131758;27;20375;-58
2021/07/14 02:34:50;;;;;;;;;;;25.00;62.70;;;;;;5134092;27;19967;-58
2021/07/14 02:37:23;;;;;;;;;;;25.00;62.80;;;;;;5121682;27;19967;-58
2021/07/14 02:39:52;;;;;;;;;;;25.00;63.00;;;;;;5132309;27;19969;-58
2021/07/14 02:42:27;;;;;;;;;;;25.00;63.00;;;;;;5134367;27;20311;-58
2021/07/14 02:44:55;;;;;;;;;;;25.00;63.10;;;;;;5132531;27;19974;-58
2021/07/14 02:47:23;;;;;;;;;;;25.00;63.10;;;;;;5132444;27;19924;-59
2021/07/14 02:49:51;;;;;;;;;;;25.00;63.00;;;;;;5134484;27;19923;-59
2021/07/14 02:52:22;;;;;;;;;;;25.00;63.00;;;;;;5133204;27;19976;-59
2021/07/14 02:54:50;;;;;;;;;;;25.00;63.00;;;;;;5119124;27;19928;-58
2021/07/14 02:57:18;;;;;;;;;;;25.00;63.00;;;;;;5131998;27;20000;-59
2021/07/14 02:59:48;;;;;;;;;;;25.00;63.00;;;;;;5134784;27;20015;-59
2021/07/14 03:02:16;;;;;;;;;;;25.00;62.90;;;;;;5133604;27;20279;-59
2021/07/14 03:04:46;;;;;;;;;;;25.00;62.90;;;;;;5133677;27;19931;-58
2021/07/14 03:07:15;;;;;;;;;;;25.00;62.70;;;;;;5133575;27;20082;-58
2021/07/14 03:09:42;;;;;;;;;;;25.00;62.80;;;;;;5133343;27;19988;-58
2021/07/14 03:12:10;;;;;;;;;;;24.90;62.80;;;;;;5132896;27;19971;-58
2021/07/14 03:14:40;;;;;;;;;;;24.90;63.00;;;;;;5133734;27;19930;-58
2021/07/14 03:17:07;;;;;;;;;;;24.90;63.00;;;;;;5116028;27;19923;-58
2021/07/14 03:19:35;;;;;;;;;;;24.90;63.80;;;;;;5131866;27;19923;-59
2021/07/14 03:22:02;;;;;;;;;;;24.90;62.90;;;;;;5133900;27;19984;-58
2021/07/14 03:24:29;;;;;;;;;;;24.90;62.80;;;;;;5114964;27;19924;-59
2021/07/14 03:26:59;;;;;;;;;;;24.90;62.90;;;;;;5131572;27;19970;-58
2021/07/14 03:29:27;;;;;;;;;;;24.90;63.00;;;;;;5131196;27;19924;-58
2021/07/14 03:31:54;;;;;;;;;;;24.90;63.00;;;;;;5132628;27;19931;-59
2021/07/14 03:34:21;;;;;;;;;;;24.90;62.90;;;;;;5131252;27;19924;-59
2021/07/14 03:36:49;;;;;;;;;;;24.90;62.80;;;;;;5129999;27;19968;-58
2021/07/14 03:39:17;;;;;;;;;;;24.90;63.00;;;;;;5125674;27;19924;-59
2021/07/14 03:41:50;;;;;;;;;;;24.90;62.90;;;;;;5116471;27;19923;-58
2021/07/14 03:44:18;;;;;;;;;;;24.90;62.90;;;;;;5097609;28;19977;-58
2021/07/14 03:46:47;;;;;;;;;;;24.90;62.90;;;;;;5116814;27;19992;-58
2021/07/14 03:49:15;;;;;;;;;;;24.90;62.90;;;;;;5116601;27;19928;-58
2021/07/14 03:51:42;;;;;;;;;;;24.90;62.80;;;;;;5121268;27;19923;-58
2021/07/14 03:54:11;;;;;;;;;;;24.90;62.90;;;;;;5133129;27;20272;-57
2021/07/14 03:56:39;;;;;;;;;;;24.90;63.00;;;;;;5128906;27;20015;-58
2021/07/14 03:59:07;;;;;;;;;;;24.90;63.10;;;;;;5118426;27;20341;-58
2021/07/14 04:01:35;;;;;;;;;;;24.90;63.10;;;;;;5131746;27;19969;-58
2021/07/14 04:04:03;;;;;;;;;;;24.90;62.90;;;;;;5132068;27;20014;-58
2021/07/14 04:06:33;;;;;;;;;;;24.90;62.80;;;;;;5132524;27;19930;-58
2021/07/14 04:09:09;;;;;;;;;;;24.90;62.70;;;;;;5114134;28;20376;-58
2021/07/14 04:11:36;;;;;;;;;;;24.90;62.90;;;;;;5113528;28;19924;-58
2021/07/14 04:14:03;;;;;;;;;;;24.90;63.00;;;;;;5132063;27;19923;-59
2021/07/14 04:16:30;;;;;;;;;;;24.90;63.00;;;;;;5131707;27;19924;-58
2021/07/14 04:18:57;;;;;;;;;;;24.90;63.10;;;;;;5132302;27;20308;-57
2021/07/14 04:21:25;;;;;;;;;;;24.90;63.00;;;;;;5134153;27;19928;-58
2021/07/14 04:23:52;;;;;;;;;;;24.90;63.10;;;;;;5131695;27;19966;-58
2021/07/14 04:26:19;;;;;;;;;;;24.90;62.90;;;;;;5132791;27;19924;-58
2021/07/14 04:28:46;;;;;;;;;;;24.90;62.80;;;;;;5129959;27;20348;-59
2021/07/14 04:31:13;;;;;;;;;;;24.90;62.80;;;;;;5133020;27;20332;-59
2021/07/14 04:33:41;;;;;;;;;;;24.80;62.60;;;;;;5130119;27;19969;-58
2021/07/14 04:36:09;;;;;;;;;;;24.90;62.70;;;;;;5122320;27;20358;-59
2021/07/14 04:38:35;;;;;;;;;;;24.90;62.70;;;;;;5098829;28;20014;-58
2021/07/14 04:41:03;;;;;;;;;;;24.90;62.70;;;;;;5125410;27;19924;-58
2021/07/14 04:43:30;;;;;;;;;;;24.90;62.70;;;;;;5131656;27;19963;-58
2021/07/14 04:45:58;;;;;;;;;;;24.90;62.60;;;;;;5131469;27;20352;-58
2021/07/14 04:48:25;;;;;;;;;;;24.90;62.70;;;;;;5130257;27;19945;-58
2021/07/14 04:50:53;;;;;;;;;;;24.90;62.70;;;;;;5127509;27;19971;-58
2021/07/14 04:53:20;;;;;;;;;;;24.90;63.50;;;;;;5120782;27;20010;-59
2021/07/14 04:55:47;;;;;;;;;;;24.90;62.60;;;;;;5131831;27;19962;-58
2021/07/14 04:58:13;;;;;;;;;;;24.90;62.50;;;;;;5130811;28;19966;-58
2021/07/14 05:00:40;;;;;;;;;;;24.90;62.50;;;;;;5130805;28;19959;-58
2021/07/14 05:03:07;;;;;;;;;;;24.90;62.50;;;;;;5129676;28;20013;-58
2021/07/14 05:05:34;;;;;;;;;;;24.90;62.40;;;;;;5129598;28;19934;-59
2021/07/14 05:08:01;;;;;;;;;;;24.90;62.40;;;;;;5133688;28;19923;-58
2021/07/14 05:10:31;;;;;;;;;;;24.90;62.30;;;;;;5132732;28;19967;-58
2021/07/14 05:12:58;;;;;;;;;;;25.00;62.30;;;;;;5132157;28;19930;-58
2021/07/14 05:15:25;;;;;;;;;;;25.00;62.20;;;;;;5131485;28;19923;-58
2021/07/14 05:17:52;;;;;;;;;;;25.00;62.20;;;;;;5130197;28;19923;-58
2021/07/14 05:20:19;;;;;;;;;;;24.90;62.20;;;;;;5131186;28;20268;-58
2021/07/14 05:22:46;;;;;;;;;;;25.00;62.20;;;;;;5133159;28;19970;-58
2021/07/14 05:25:15;;;;;;;;;;;25.00;62.20;;;;;;5131028;28;19959;-58
2021/07/14 05:27:43;;;;;;;;;;;25.00;62.20;;;;;;5117787;28;19924;-58
2021/07/14 05:30:10;;;;;;;;;;;25.00;62.10;;;;;;5126751;28;20340;-58
2021/07/14 05:32:37;;;;;;;;;;;25.00;62.10;;;;;;5119752;28;19924;-58
2021/07/14 05:35:05;;;;;;;;;;;25.00;62.10;;;;;;5113367;28;20329;-58
2021/07/14 05:37:32;;;;;;;;;;;25.00;62.00;;;;;;5125413;28;20006;-59
2021/07/14 05:39:59;;;;;;;;;;;25.00;62.10;;;;;;5121576;28;19924;-58
2021/07/14 05:42:26;;;;;;;;;;;25.10;62.10;;;;;;5121675;28;19972;-58
2021/07/14 05:44:53;;;;;;;;;;;25.10;62.00;;;;;;5129347;28;20427;-58
2021/07/14 05:47:20;;;;;;;;;;;25.10;61.80;;;;;;5131817;28;19924;-59
2021/07/14 05:49:47;;;;;;;;;;;25.10;61.90;;;;;;5129209;28;19927;-58
2021/07/14 05:52:14;;;;;;;;;;;25.20;61.70;;;;;;5132108;28;19927;-58
2021/07/14 05:54:42;;;;;;;;;;;25.20;61.80;;;;;;5130425;28;19930;-58
2021/07/14 05:57:09;;;;;;;;;;;25.10;61.70;;;;;;5132776;28;19944;-58
2021/07/14 05:59:36;;;;;;;;;;;25.20;61.70;;;;;;5130347;28;19924;-59
2021/07/14 06:02:03;;;;;;;;;;;25.20;61.70;;;;;;5129456;28;19990;-58
2021/07/14 06:04:30;;;;;;;;;;;25.20;61.60;;;;;;5130304;28;19931;-59
2021/07/14 06:06:59;;;;;;;;;;;25.20;61.70;;;;;;5132708;27;19923;-58
2021/07/14 06:09:26;;;;;;;;;;;25.20;61.60;;;;;;5136505;27;19923;-58
2021/07/14 06:11:53;;;;;;;;;;;25.20;61.70;;;;;;5134049;27;20344;-59
2021/07/14 06:14:20;;;;;;;;;;;25.30;61.90;;;;;;5135852;27;19993;-59
2021/07/14 06:16:47;;;;;;;;;;;25.30;61.80;;;;;;5132911;27;19923;-59
2021/07/14 06:19:15;;;;;;;;;;;25.30;61.80;;;;;;5119450;27;20011;-59
2021/07/14 06:21:42;;;;;;;;;;;25.30;61.60;;;;;;5119694;27;19973;-58
2021/07/14 06:24:09;;;;;;;;;;;25.40;61.50;;;;;;5131991;27;20352;-58
2021/07/14 06:26:36;;;;;;;;;;;25.40;61.50;;;;;;5122496;27;19932;-59
2021/07/14 06:29:03;;;;;;;;;;;25.40;61.30;;;;;;5131067;27;19931;-58
2021/07/14 06:31:31;;;;;;;;;;;25.40;61.30;;;;;;5124200;27;20395;-58
2021/07/14 06:33:58;;;;;;;;;;;25.40;61.30;;;;;;5128028;27;20022;-58
2021/07/14 06:36:25;;;;;;;;;;;25.40;61.20;;;;;;5132624;27;20382;-58
2021/07/14 06:38:52;;;;;;;;;;;25.40;61.10;;;;;;5133727;27;19924;-58
2021/07/14 06:41:22;;;;;;;;;;;25.50;61.00;;;;;;5133341;27;19924;-58
2021/07/14 06:43:50;;;;;;;;;;;25.50;61.00;;;;;;5133474;27;19935;-58
2021/07/14 06:46:18;;;;;;;;;;;25.50;60.90;;;;;;5133848;27;20320;-58
2021/07/14 06:48:45;;;;;;;;;;;25.50;60.80;;;;;;5133384;27;19928;-58
2021/07/14 06:51:13;;;;;;;;;;;25.60;60.90;;;;;;5133719;27;19923;-58
2021/07/14 06:53:40;;;;;;;;;;;25.60;60.90;;;;;;5134850;27;19972;-58
2021/07/14 06:56:07;;;;;;;;;;;25.60;60.90;;;;;;5113593;27;19924;-59
2021/07/14 06:58:36;;;;;;;;;;;25.60;60.90;;;;;;5132689;27;20371;-59
2021/07/14 07:01:04;;;;;;;;;;;25.60;60.70;;;;;;5132312;27;19924;-59
2021/07/14 07:03:32;;;;;;;;;;;25.60;60.70;;;;;;5118110;27;20291;-59
2021/07/14 07:06:00;;;;;;;;;;;25.60;60.60;;;;;;5133676;27;19972;-59
2021/07/14 07:08:27;;;;;;;;;;;25.60;60.60;;;;;;5133160;27;19923;-59
2021/07/14 07:10:54;;;;;;;;;;;25.60;60.40;;;;;;5133161;27;19988;-59
2021/07/14 07:13:22;;;;;;;;;;;25.60;60.30;;;;;;5134546;27;19928;-59
2021/07/14 07:15:49;;;;;;;;;;;25.60;60.40;;;;;;5116312;27;19927;-59
2021/07/14 07:18:19;;;;;;;;;;;25.60;60.40;;;;;;5133802;27;19923;-59
2021/07/14 07:20:56;;;;;;;;;;;25.70;60.50;;;;;;5133827;27;20391;-59
2021/07/14 07:23:23;;;;;;;;;;;25.60;60.40;;;;;;5133010;27;20280;-59
2021/07/14 07:25:52;;;;;;;;;;;25.70;60.40;;;;;;5120659;27;19923;-60
2021/07/14 07:28:21;;;;;;;;;;;25.70;60.40;;;;;;5130300;27;19923;-58
2021/07/14 07:30:48;;;;;;;;;;;25.70;60.40;;;;;;5133873;27;19924;-58
2021/07/14 07:33:15;;;;;;;;;;;25.70;60.40;;;;;;5131770;27;20010;-58
2021/07/14 07:35:43;;;;;;;;;;;25.70;60.30;;;;;;5123509;27;20010;-58
2021/07/14 07:38:10;;;;;;;;;;;25.70;60.40;;;;;;5124038;27;19928;-59
2021/07/14 07:40:37;;;;;;;;;;;25.70;60.40;;;;;;5132391;27;19931;-59
2021/07/14 07:43:04;;;;;;;;;;;25.70;60.40;;;;;;5130884;27;19970;-59
2021/07/14 07:45:31;;;;;;;;;;;25.70;60.20;;;;;;5131105;27;19968;-59
2021/07/14 07:47:58;;;;;;;;;;;25.70;60.40;;;;;;5131973;27;19952;-59
2021/07/14 07:50:26;;;;;;;;;;;25.70;60.30;;;;;;5133253;27;19927;-58
2021/07/14 07:52:53;;;;;;;;;;;25.70;60.40;;;;;;5130967;27;19983;-59
2021/07/14 07:55:20;;;;;;;;;;;25.70;60.20;;;;;;5130105;27;19931;-59
2021/07/14 07:57:47;;;;;;;;;;;25.70;60.20;;;;;;5130382;27;20394;-59
2021/07/14 08:00:16;;;;;;;;;;;25.70;60.20;;;;;;5130809;27;19928;-59
2021/07/14 08:02:43;;;;;;;;;;;25.70;60.30;;;;;;5130634;27;19924;-59
2021/07/14 08:05:10;;;;;;;;;;;25.70;60.00;;;;;;5134249;27;19930;-59
2021/07/14 08:07:37;;;;;;;;;;;25.80;60.10;;;;;;5133489;27;19963;-59
2021/07/14 08:10:08;;;;;;;;;;;25.90;60.10;;;;;;5133042;27;19924;-59
2021/07/14 08:12:35;;;;;;;;;;;25.90;60.00;;;;;;5115172;28;19923;-59
2021/07/14 08:15:03;;;;;;;;;;;25.90;60.00;;;;;;5116093;27;19928;-59
2021/07/14 08:17:30;;;;;;;;;;;26.00;60.00;;;;;;5114720;27;19928;-59
2021/07/14 08:19:57;;;;;;;;;;;26.00;59.90;;;;;;5129870;27;19927;-59
2021/07/14 08:22:24;;;;;;;;;;;26.00;60.00;;;;;;5131364;27;19930;-59
2021/07/14 08:24:51;;;;;;;;;;;26.00;60.00;;;;;;5120097;27;19969;-59
2021/07/14 08:27:20;;;;;;;;;;;26.00;60.00;;;;;;5128677;27;19974;-59
2021/07/14 08:29:47;;;;;;;;;;;26.00;60.80;;;;;;5132421;27;19923;-59
2021/07/14 08:32:14;;;;;;;;;;;26.00;60.20;;;;;;5134094;27;20036;-59
2021/07/14 08:34:41;;;;;;;;;;;26.00;60.20;;;;;;5130263;27;19924;-58
2021/07/14 08:37:08;;;;;;;;;;;26.00;60.10;;;;;;5126538;27;20018;-58
2021/07/14 08:39:35;;;;;;;;;;;26.10;60.20;;;;;;5115877;27;19988;-58
2021/07/14 08:42:02;;;;;;;;;;;26.00;60.40;;;;;;5132212;27;19972;-58
2021/07/14 08:44:30;;;;;;;;;;;26.00;60.40;;;;;;5129967;27;19931;-59
2021/07/14 08:46:57;;;;;;;;;;;26.00;60.20;;;;;;5131584;27;19923;-59
2021/07/14 08:49:25;;;;;;;;;;;25.90;60.40;;;;;;5131269;27;19923;-58
2021/07/14 08:51:52;;;;;;;;;;;25.90;60.50;;;;;;5130617;27;19927;-59
2021/07/14 08:54:20;;;;;;;;;;;25.90;60.40;;;;;;5129648;27;19953;-58
2021/07/14 08:56:48;;;;;;;;;;;25.90;60.50;;;;;;5131388;27;19931;-59
2021/07/14 08:59:17;;;;;;;;;;;25.90;60.60;;;;;;5129507;28;19924;-59
2021/07/14 09:01:45;;;;;;;;;;;26.00;60.70;;;;;;5131056;28;19923;-59
2021/07/14 09:04:12;;;;;;;;;;;26.00;60.70;;;;;;5132396;28;19930;-59
2021/07/14 09:06:39;;;;;;;;;;;26.00;60.70;;;;;;5133751;28;20398;-59
2021/07/14 09:09:06;;;;;;;;;;;25.90;60.70;;;;;;5115410;28;19927;-59
2021/07/14 09:11:51;;;;;;;;;;;25.90;60.90;;;;;;5132532;28;20319;-59
2021/07/14 09:14:25;;;;;;;;;;;25.90;60.80;;;;;;5113466;28;19930;-59
2021/07/14 09:16:52;;;;;;;;;;;25.90;60.90;;;;;;5114525;28;19924;-59
2021/07/14 09:19:22;;;;;;;;;;;25.90;60.80;;;;;;5133049;28;19923;-59
2021/07/14 09:21:49;;;;;;;;;;;25.90;60.80;;;;;;5131471;28;19927;-59
2021/07/14 09:24:22;;;;;;;;;;;25.90;60.90;;;;;;5133822;28;19957;-59
2021/07/14 09:26:49;;;;;;;;;;;25.90;61.00;;;;;;5130494;28;19935;-60
2021/07/14 09:29:17;;;;;;;;;;;25.80;60.80;;;;;;5133365;28;19923;-59
2021/07/14 09:31:47;;;;;;;;;;;25.80;60.90;;;;;;5117758;28;19930;-59
2021/07/14 09:34:30;;;;;;;;;;;25.80;60.90;;;;;;5128819;28;20349;-59
2021/07/14 09:36:59;;;;;;;;;;;25.80;61.00;;;;;;5116281;28;19930;-59
2021/07/14 09:39:33;;;;;;;;;;;25.80;60.90;;;;;;5128946;28;19924;-59
2021/07/14 09:42:07;;;;;;;;;;;25.80;60.90;;;;;;5133230;27;19924;-59
2021/07/14 09:44:43;;;;;;;;;;;25.90;61.00;;;;;;5133343;27;19927;-59
2021/07/14 09:47:11;;;;;;;;;;;25.90;60.90;;;;;;5133845;27;19969;-59
2021/07/14 09:49:38;;;;;;;;;;;25.90;61.00;;;;;;5136977;27;19937;-60
2021/07/14 09:52:06;;;;;;;;;;;25.80;60.80;;;;;;5133217;27;19927;-59
2021/07/14 09:54:33;;;;;;;;;;;25.80;60.80;;;;;;5134380;27;20044;-59
2021/07/14 09:57:07;;;;;;;;;;;25.90;60.80;;;;;;5134451;27;19927;-59
2021/07/14 09:59:34;;;;;;;;;;;25.90;60.90;;;;;;5118374;27;19924;-59
2021/07/14 10:02:01;;;;;;;;;;;25.80;60.80;;;;;;5125952;27;19923;-60
2021/07/14 10:04:31;;;;;;;;;;;25.80;61.00;;;;;;5127221;27;19923;-59
2021/07/14 10:07:22;;;;;;;;;;;25.80;61.00;;;;;;5126222;27;19924;-59
2021/07/14 10:09:50;;;;;;;;;;;25.70;61.00;;;;;;5130137;27;19968;-59
2021/07/14 10:12:34;;;;;;;;;;;25.70;61.10;;;;;;5135367;27;20331;-59
2021/07/14 10:15:07;;;;;;;;;;;25.70;61.10;;;;;;5133800;27;19930;-59
2021/07/14 10:17:45;;;;;;;;;;;25.70;61.20;;;;;;5135159;27;19972;-59
2021/07/14 10:20:20;;;;;;;;;;;25.70;61.10;;;;;;5135347;27;19924;-59
2021/07/14 10:22:52;;;;;;;;;;;25.70;61.00;;;;;;5133649;27;19924;-59
2021/07/14 10:25:19;;;;;;;;;;;25.70;61.10;;;;;;5133895;27;19967;-59
2021/07/14 10:27:47;;;;;;;;;;;25.70;61.00;;;;;;5133448;27;19980;-59
2021/07/14 10:30:15;;;;;;;;;;;25.70;60.90;;;;;;5135081;27;20359;-59
2021/07/14 10:32:42;;;;;;;;;;;25.70;60.90;;;;;;5133524;27;19923;-59
2021/07/14 10:35:10;;;;;;;;;;;25.80;61.00;;;;;;5133336;27;20386;-59
2021/07/14 10:37:38;;;;;;;;;;;25.80;60.70;;;;;;5125008;27;20287;-58
2021/07/14 10:40:06;;;;;;;;;;;25.90;60.50;;;;;;5136363;27;20219;-59
2021/07/14 10:42:34;;;;;;;;;;;25.90;60.40;;;;;;5133501;27;20424;-59
2021/07/14 10:45:02;;;;;;;;;;;26.00;60.30;;;;;;5133180;27;19962;-59
2021/07/14 10:47:30;;;;;;;;;;;26.10;60.10;;;;;;5132224;27;20371;-59
2021/07/14 10:49:57;;;;;;;;;;;26.20;59.90;;;;;;5132201;27;19928;-59
2021/07/14 10:52:24;;;;;;;;;;;26.20;59.70;;;;;;5134460;27;19984;-59
2021/07/14 10:54:52;;;;;;;;;;;26.20;59.60;;;;;;5134294;27;19947;-59
2021/07/14 10:57:22;;;;;;;;;;;26.30;59.50;;;;;;5132285;27;20321;-59
2021/07/14 10:59:51;;;;;;;;;;;26.30;59.30;;;;;;5116145;27;20027;-59
2021/07/14 11:02:36;;;;;;;;;;;26.40;59.20;;;;;;5116543;27;20361;-59
2021/07/14 11:05:03;;;;;;;;;;;26.40;59.10;;;;;;5117901;27;20316;-59
2021/07/14 11:07:41;;;;;;;;;;;26.40;59.60;;;;;;5114654;27;19977;-59
2021/07/14 11:10:30;;;;;;;;;;;26.50;58.90;;;;;;5133712;27;19931;-59
2021/07/14 11:12:58;;;;;;;;;;;26.50;58.80;;;;;;5131631;27;19923;-59
2021/07/14 11:15:33;;;;;;;;;;;26.60;58.70;;;;;;5132701;27;20059;-59
2021/07/14 11:18:20;;;;;;;;;;;26.60;58.70;;;;;;5132818;27;19976;-59
2021/07/14 11:20:47;;;;;;;;;;;26.60;58.70;;;;;;5131454;27;19945;-59
2021/07/14 11:23:17;;;;;;;;;;;26.60;58.70;;;;;;5132795;27;20463;-59
2021/07/14 11:25:48;;;;;;;;;;;26.50;58.80;;;;;;5132539;27;20375;-59
2021/07/14 11:28:15;;;;;;;;;;;26.50;58.90;;;;;;5131529;27;20321;-59
2021/07/14 11:30:43;;;;;;;;;;;26.50;59.00;;;;;;5132800;27;19959;-59
2021/07/14 11:33:17;;;;;;;;;;;26.50;59.00;;;;;;5133871;27;19955;-59
2021/07/14 11:35:49;;;;;;;;;;;26.50;59.00;;;;;;5129194;27;19924;-59
2021/07/14 11:38:20;;;;;;;;;;;26.40;58.80;;;;;;5134161;27;19930;-59
2021/07/14 11:40:49;;;;;;;;;;;26.50;59.00;;;;;;5116024;27;20431;-59
2021/07/14 11:43:19;;;;;;;;;;;26.50;58.90;;;;;;5116109;27;19955;-58
2021/07/14 11:45:47;;;;;;;;;;;26.50;58.80;;;;;;5133764;27;19972;-58
2021/07/14 11:48:16;;;;;;;;;;;26.50;58.90;;;;;;5134907;27;19924;-59
2021/07/14 11:50:43;;;;;;;;;;;26.50;59.00;;;;;;5120149;27;19991;-59
2021/07/14 11:53:30;;;;;;;;;;;26.50;58.90;;;;;;5116478;27;19931;-59
2021/07/14 11:56:17;;;;;;;;;;;26.50;58.90;;;;;;5115254;27;19953;-59
2021/07/14 11:58:52;;;;;;;;;;;26.50;59.20;;;;;;5115611;27;19927;-59
2021/07/14 12:01:21;;;;;;;;;;;26.50;58.80;;;;;;5115679;27;19930;-59
2021/07/14 12:04:01;;;;;;;;;;;26.50;58.70;;;;;;5096216;27;19966;-59
2021/07/14 12:09:05;;;;;;;;;;;26.60;58.60;;;;;;5114257;28;19972;-59
2021/07/14 12:11:32;;;;;;;;;;;26.60;58.60;;;;;;5116520;27;19927;-59
2021/07/14 12:13:59;;;;;;;;;;;26.60;58.60;;;;;;5115706;27;19944;-59
2021/07/14 12:16:27;;;;;;;;;;;26.60;58.40;;;;;;5134299;27;19927;-59
2021/07/14 12:18:59;;;;;;;;;;;26.60;58.50;;;;;;5134130;27;20397;-59
2021/07/14 12:21:52;;;;;;;;;;;26.60;58.40;;;;;;5133148;27;20302;-59
2021/07/14 12:24:27;;;;;;;;;;;26.70;58.40;;;;;;5110962;28;20055;-59
2021/07/14 12:26:59;;;;;;;;;;;26.70;58.40;;;;;;5115315;27;19930;-59
2021/07/14 12:29:26;;;;;;;;;;;26.70;58.40;;;;;;5133827;27;20328;-59
2021/07/14 12:31:53;;;;;;;;;;;26.60;58.40;;;;;;5116324;27;19923;-59
2021/07/14 12:34:23;;;;;;;;;;;26.60;58.40;;;;;;5131978;27;19924;-58
2021/07/14 12:36:50;;;;;;;;;;;26.70;58.40;;;;;;5115081;27;20382;-58
2021/07/14 12:39:43;;;;;;;;;;;26.60;58.50;;;;;;5132790;27;19957;-58
2021/07/14 12:42:10;;;;;;;;;;;26.60;58.50;;;;;;5109847;28;19924;-59
2021/07/14 12:44:38;;;;;;;;;;;26.60;58.60;;;;;;5115701;27;19971;-58
2021/07/14 12:47:12;;;;;;;;;;;26.60;58.40;;;;;;5131805;27;19923;-59
2021/07/14 12:49:39;;;;;;;;;;;26.60;58.30;;;;;;5131984;27;19972;-59
2021/07/14 12:52:08;;;;;;;;;;;26.70;58.20;;;;;;5131034;27;20422;-58
2021/07/14 12:54:36;;;;;;;;;;;26.70;58.20;;;;;;5130935;27;19931;-59
2021/07/14 12:57:06;;;;;;;;;;;26.70;58.10;;;;;;5130281;27;20003;-59
2021/07/14 12:59:33;;;;;;;;;;;26.70;58.10;;;;;;5131388;27;19923;-59
2021/07/14 13:02:00;;;;;;;;;;;26.70;58.30;;;;;;5129729;28;20002;-59
2021/07/14 13:04:28;;;;;;;;;;;26.70;58.10;;;;;;5132127;28;20398;-59
2021/07/14 13:06:55;;;;;;;;;;;26.70;58.20;;;;;;5133675;28;19976;-59
2021/07/14 13:09:22;;;;;;;;;;;26.70;58.30;;;;;;5133680;28;19966;-59
2021/07/14 13:11:49;;;;;;;;;;;26.70;58.30;;;;;;5130736;28;19931;-59
2021/07/14 13:14:17;;;;;;;;;;;26.70;58.20;;;;;;5129857;28;19923;-59
2021/07/14 13:16:44;;;;;;;;;;;26.70;58.20;;;;;;5134936;27;20275;-59
2021/07/14 13:19:15;;;;;;;;;;;26.70;58.20;;;;;;5134201;27;20002;-59
2021/07/14 13:21:42;;;;;;;;;;;26.70;58.30;;;;;;5136479;27;19924;-59
2021/07/14 13:24:09;;;;;;;;;;;26.70;58.20;;;;;;5136243;27;19942;-58
2021/07/14 13:26:36;;;;;;;;;;;26.70;58.60;;;;;;5131774;27;19953;-58
2021/07/14 13:29:03;;;;;;;;;;;26.70;58.50;;;;;;5121497;27;20035;-58
2021/07/14 13:31:32;;;;;;;;;;;26.60;58.60;;;;;;5133612;27;19923;-58
2021/07/14 13:34:03;;;;;;;;;;;26.60;58.70;;;;;;5119076;27;20018;-55
2021/07/14 13:36:37;;;;;;;;;;;26.60;58.70;;;;;;5118842;27;19943;-62
2021/07/14 13:39:17;;;;;;;;;;;26.50;59.20;;;;;;5119356;27;19928;-60
2021/07/14 13:41:45;;;;;;;;;;;26.50;59.40;;;;;;5133646;27;19924;-61
2021/07/14 13:44:23;;;;;;;;;;;26.40;59.20;;;;;;5133688;27;20354;-60
2021/07/14 13:46:50;;;;;;;;;;;26.40;59.60;;;;;;5137355;27;19923;-59
2021/07/14 13:49:21;;;;;;;;;;;26.40;59.50;;;;;;5133602;27;19998;-60
2021/07/14 13:51:57;;;;;;;;;;;26.40;59.20;;;;;;5135675;27;19973;-60
2021/07/14 13:54:25;;;;;;;;;;;26.30;59.10;;;;;;5132888;27;19923;-58
2021/07/14 13:57:02;;;;;;;;;;;26.40;59.20;;;;;;5133840;27;19942;-59
2021/07/14 13:59:31;;;;;;;;;;;26.30;59.00;;;;;;5133299;27;19924;-59
2021/07/14 14:02:03;;;;;;;;;;;26.20;59.10;;;;;;5136005;27;19923;-59
2021/07/14 14:04:47;;;;;;;;;;;26.20;59.20;;;;;;5116263;28;19924;-59
2021/07/14 14:07:14;;;;;;;;;;;26.20;59.20;;;;;;5119704;27;19924;-59
2021/07/14 14:10:00;;;;;;;;;;;26.20;59.40;;;;;;5135980;27;19954;-59
2021/07/14 14:12:36;;;;;;;;;;;26.10;59.30;;;;;;5117504;27;19927;-60
2021/07/14 14:15:08;;;;;;;;;;;26.00;59.50;;;;;;5134199;27;20344;-58
2021/07/14 14:17:35;;;;;;;;;;;26.00;59.70;;;;;;5134091;27;19927;-58
2021/07/14 14:20:04;;;;;;;;;;;26.10;59.50;;;;;;5135716;27;19967;-58
2021/07/14 14:22:31;;;;;;;;;;;26.10;59.30;;;;;;5119623;27;19924;-59
2021/07/14 14:25:06;;;;;;;;;;;26.10;59.30;;;;;;5136686;27;19923;-58
2021/07/14 14:30:30;;;;;;;;;;;26.00;59.60;;;;;;5101639;27;19924;-58
2021/07/14 14:32:58;;;;;;;;;;;26.00;59.90;;;;;;5132781;27;20317;-58
2021/07/14 14:35:26;;;;;;;;;;;26.00;60.00;;;;;;5133470;27;19932;-58
2021/07/14 14:37:55;;;;;;;;;;;26.00;60.40;;;;;;5136220;27;19924;-58
2021/07/14 14:40:23;;;;;;;;;;;25.90;60.70;;;;;;5126015;27;19928;-58